Información del aeropuerto SAAR

Información de pista
Pista 02 Longitud 9842 ft Anchura 148 ft
Elevación 82 ft Umbral 0 ft Rumbo 10
Pista 20 Longitud 9842 ft Anchura 148 ft
Elevación 77 ft Umbral 0 ft Rumbo 190
Frecuencias del aeropuerto
Tipo TWR Nombre TWR/APP Frecuencia 118.7 MHZ
Radioayudas del aeropuerto
Tipo VOR-DME Nombre Rosario Frecuencia 117300 KHZ
Información meteorológica del aeropuerto y NOTAM
ADDS - METARS form results

(1136 UTC 16 October 2021)
Data provider http://aviationweather.gov/metar/data/
 
METAR text: SAAR 161100Z 05009KT CAVOK 11/05 Q1025
Conditions at: SAAR (ROSARIO AIRPORT , AR) observed 1100 UTC 16 October 2021
Temperature: 11.0°C (52°F)
Dewpoint: 5.0°C (41°F) [RH = 66%]
Pressure (altimeter): 30.27 inches Hg (1025.0 mb)
Winds: from the NE (50 degrees) at 10 MPH (9 knots; 4.6 m/s)
Visibility: 6 or more miles (10+ km)
Ceiling: ceiling and visibility are OK
Clouds: unknown
Weather: no significant weather observed at this time

METAR text: SAAR 161050Z 05007KT CAVOK 11/05 Q1025
Conditions at: SAAR (ROSARIO AIRPORT , AR) observed 1050 UTC 16 October 2021
Temperature: 11.0°C (52°F)
Dewpoint: 5.0°C (41°F) [RH = 66%]
Pressure (altimeter): 30.27 inches Hg (1025.0 mb)
Winds: from the NE (50 degrees) at 8 MPH (7 knots; 3.6 m/s)
Visibility: 6 or more miles (10+ km)
Ceiling: ceiling and visibility are OK
Clouds: unknown
Weather: no significant weather observed at this time

Forecast for: SAAR (ROSARIO AIRPORT , AR)
Text: TAF SAAR 161100Z 1612/1712 04010KT CAVOK TX22/1619Z TN09/1709Z
Forecast period: 1200 to 1700 UTC 16 October 2021
Forecast type: FROM: standard forecast or significant change
Winds: from the NE (40 degrees) at 12 MPH (10 knots; 5.1 m/s)
Visibility: 6 or more miles (10+ km)
Ceiling: unknown
Clouds: missing
Weather: no significant weather forecast for this period
Text: BECMG 1617/1619 08005KT
Forecast period: 1700 UTC 16 October 2021 to 0200 UTC 17 October 2021
Forecast type: BECOMING: Conditions expected to become as follows by 1900 UTC 16 October 2021
Winds: from the E (80 degrees) at 6 MPH (5 knots; 2.6 m/s)
Visibility: 6 or more miles (10+ km)
Ceiling: unknown
Clouds: missing
Weather: no significant weather forecast for this period
Text: BECMG 1702/1705 05005KT
Forecast period: 0200 to 1200 UTC 17 October 2021
Forecast type: BECOMING: Conditions expected to become as follows by 0500 UTC 17 October 2021
Winds: from the NE (50 degrees) at 6 MPH (5 knots; 2.6 m/s)
Visibility: 6 or more miles (10+ km)
Ceiling: unknown
Clouds: missing
Weather: no significant weather forecast for this period
Text: PROB30
Forecast period: 0600 to 1000 UTC 17 October 2021
Forecast type: TEMPORARY: The following changes expected for less than half the time period
Visibility: 3 miles (5 km)
Ceiling: unknown
Clouds: missing
Weather: MIFG BR  (shallow fog, mist)